Decoded Metar for KSMX (SANTA MARIA in CA, USA) (IATA:SMX) | Meteo·Mobile Aviation Weather
aviador You're here:

KSMX Decoded Metar

SANTA MARIA in CA, USA
Report Time2018-09-20 07:51:00
UTC Time2018-09-20 08:41:05
Flight Rules vfr VFR
WindCalm
Visibility9999 m
Phenomena:N/A
Clouds:N/A
Expected CloudBase > 1,200 ft AGL from Temp-Dew spread
CeilingNone
Temp12°C (ISA -3)
Dew Point09°C (82% RH)
AAT11.8°C
QNH1008 hPa
Density Alt269 ft
Elevation243 ft
Report Wrong Elevation
Raw Report
KSMX 200751Z AUTO 00000KT 7SM CLR 12/09 A2978 RMK AO2 SLP086
T01170089 402110117 $=

Extra information for KSMX:More info

Metar Taf Metar & Taf Last 4 Metars F.Rules Stats Wind Profile Meteogram Temp Stats Airport Information Weather charts Add Link Nearby VenuesMetar ALERT Operation Metar Decoded Social comments

AIRNAV info for KSMX